sensor_id;sensor_type;location;lat;lon;timestamp;P1;durP1;ratioP1;P2;durP2;ratioP2
37047;SDS011;23227;48.780;9.210;2023-11-19T00:00:55;1.50;;;0.60;;
37047;SDS011;23227;48.780;9.210;2023-11-19T00:03:58;0.90;;;0.40;;
37047;SDS011;23227;48.780;9.210;2023-11-19T00:07:01;0.80;;;0.47;;
37047;SDS011;23227;48.780;9.210;2023-11-19T00:10:06;0.53;;;0.43;;
37047;SDS011;23227;48.780;9.210;2023-11-19T00:13:12;0.60;;;0.50;;
37047;SDS011;23227;48.780;9.210;2023-11-19T00:16:15;0.63;;;0.30;;
37047;SDS011;23227;48.780;9.210;2023-11-19T00:19:18;0.67;;;0.47;;
37047;SDS011;23227;48.780;9.210;2023-11-19T00:22:21;0.70;;;0.40;;
37047;SDS011;23227;48.780;9.210;2023-11-19T00:25:24;0.60;;;0.50;;
37047;SDS011;23227;48.780;9.210;2023-11-19T00:31:31;1.27;;;0.50;;
37047;SDS011;23227;48.780;9.210;2023-11-19T00:34:34;1.45;;;0.50;;
37047;SDS011;23227;48.780;9.210;2023-11-19T00:37:37;0.32;;;0.32;;
37047;SDS011;23227;48.780;9.210;2023-11-19T00:40:39;1.27;;;0.82;;
37047;SDS011;23227;48.780;9.210;2023-11-19T00:43:44;0.50;;;0.40;;
37047;SDS011;23227;48.780;9.210;2023-11-19T00:46:46;0.73;;;0.50;;
37047;SDS011;23227;48.780;9.210;2023-11-19T00:49:49;0.63;;;0.50;;
37047;SDS011;23227;48.780;9.210;2023-11-19T00:52:52;0.40;;;0.30;;
37047;SDS011;23227;48.780;9.210;2023-11-19T00:55:54;0.75;;;0.47;;
37047;SDS011;23227;48.780;9.210;2023-11-19T00:58:58;0.77;;;0.50;;
37047;SDS011;23227;48.780;9.210;2023-11-19T01:02:02;0.60;;;0.40;;
37047;SDS011;23227;48.780;9.210;2023-11-19T01:05:08;0.73;;;0.40;;
37047;SDS011;23227;48.780;9.210;2023-11-19T01:08:11;0.57;;;0.50;;
37047;SDS011;23227;48.780;9.210;2023-11-19T01:11:19;0.35;;;0.30;;
37047;SDS011;23227;48.780;9.210;2023-11-19T01:14:24;0.23;;;0.23;;
37047;SDS011;23227;48.780;9.210;2023-11-19T01:17:26;0.47;;;0.40;;
37047;SDS011;23227;48.780;9.210;2023-11-19T01:20:29;0.30;;;0.30;;
37047;SDS011;23227;48.780;9.210;2023-11-19T01:23:31;0.32;;;0.30;;
37047;SDS011;23227;48.780;9.210;2023-11-19T01:26:35;0.43;;;0.40;;
37047;SDS011;23227;48.780;9.210;2023-11-19T01:29:39;0.75;;;0.50;;
37047;SDS011;23227;48.780;9.210;2023-11-19T01:32:43;0.40;;;0.37;;
37047;SDS011;23227;48.780;9.210;2023-11-19T01:35:46;0.90;;;0.47;;
37047;SDS011;23227;48.780;9.210;2023-11-19T01:38:48;0.50;;;0.40;;
37047;SDS011;23227;48.780;9.210;2023-11-19T01:41:51;0.63;;;0.47;;
37047;SDS011;23227;48.780;9.210;2023-11-19T01:44:58;1.03;;;0.40;;
37047;SDS011;23227;48.780;9.210;2023-11-19T01:48:02;0.57;;;0.40;;
37047;SDS011;23227;48.780;9.210;2023-11-19T01:51:06;1.37;;;0.50;;
37047;SDS011;23227;48.780;9.210;2023-11-19T01:54:09;0.90;;;0.50;;
37047;SDS011;23227;48.780;9.210;2023-11-19T01:57:12;0.40;;;0.40;;
37047;SDS011;23227;48.780;9.210;2023-11-19T02:00:16;0.43;;;0.40;;
37047;SDS011;23227;48.780;9.210;2023-11-19T02:03:21;0.77;;;0.40;;
37047;SDS011;23227;48.780;9.210;2023-11-19T02:06:23;0.40;;;0.40;;
37047;SDS011;23227;48.780;9.210;2023-11-19T02:09:27;0.67;;;0.50;;
37047;SDS011;23227;48.780;9.210;2023-11-19T02:12:31;0.57;;;0.47;;
37047;SDS011;23227;48.780;9.210;2023-11-19T02:15:36;0.53;;;0.33;;
37047;SDS011;23227;48.780;9.210;2023-11-19T02:18:39;0.50;;;0.50;;
37047;SDS011;23227;48.780;9.210;2023-11-19T02:21:41;0.70;;;0.40;;
37047;SDS011;23227;48.780;9.210;2023-11-19T02:24:44;0.40;;;0.40;;
37047;SDS011;23227;48.780;9.210;2023-11-19T02:27:53;0.50;;;0.40;;
37047;SDS011;23227;48.780;9.210;2023-11-19T02:30:58;0.60;;;0.50;;
37047;SDS011;23227;48.780;9.210;2023-11-19T02:34:00;0.60;;;0.43;;
37047;SDS011;23227;48.780;9.210;2023-11-19T02:37:04;0.67;;;0.40;;
37047;SDS011;23227;48.780;9.210;2023-11-19T02:40:07;0.30;;;0.30;;
37047;SDS011;23227;48.780;9.210;2023-11-19T02:43:12;0.40;;;0.40;;
37047;SDS011;23227;48.780;9.210;2023-11-19T02:46:15;0.20;;;0.20;;
37047;SDS011;23227;48.780;9.210;2023-11-19T02:52:22;0.52;;;0.43;;
37047;SDS011;23227;48.780;9.210;2023-11-19T02:55:26;0.50;;;0.33;;
37047;SDS011;23227;48.780;9.210;2023-11-19T02:58:32;1.33;;;0.50;;
37047;SDS011;23227;48.780;9.210;2023-11-19T03:01:35;0.30;;;0.30;;
37047;SDS011;23227;48.780;9.210;2023-11-19T03:04:38;0.28;;;0.28;;
37047;SDS011;23227;48.780;9.210;2023-11-19T03:10:45;0.30;;;0.20;;
37047;SDS011;23227;48.780;9.210;2023-11-19T03:13:49;0.25;;;0.25;;
37047;SDS011;23227;48.780;9.210;2023-11-19T03:16:51;0.40;;;0.33;;
37047;SDS011;23227;48.780;9.210;2023-11-19T03:19:54;0.30;;;0.20;;
37047;SDS011;23227;48.780;9.210;2023-11-19T03:22:57;0.52;;;0.45;;
37047;SDS011;23227;48.780;9.210;2023-11-19T03:25:59;0.22;;;0.22;;
37047;SDS011;23227;48.780;9.210;2023-11-19T03:29:06;1.13;;;0.43;;
37047;SDS011;23227;48.780;9.210;2023-11-19T03:32:08;0.30;;;0.30;;
37047;SDS011;23227;48.780;9.210;2023-11-19T03:35:11;0.40;;;0.40;;
37047;SDS011;23227;48.780;9.210;2023-11-19T03:41:17;0.60;;;0.43;;
37047;SDS011;23227;48.780;9.210;2023-11-19T03:44:20;0.28;;;0.20;;
37047;SDS011;23227;48.780;9.210;2023-11-19T03:47:23;0.30;;;0.30;;
37047;SDS011;23227;48.780;9.210;2023-11-19T03:50:26;0.20;;;0.20;;
37047;SDS011;23227;48.780;9.210;2023-11-19T03:53:28;0.47;;;0.35;;
37047;SDS011;23227;48.780;9.210;2023-11-19T03:56:32;0.53;;;0.40;;
37047;SDS011;23227;48.780;9.210;2023-11-19T03:59:36;2.22;;;0.40;;
37047;SDS011;23227;48.780;9.210;2023-11-19T04:02:39;0.50;;;0.40;;
37047;SDS011;23227;48.780;9.210;2023-11-19T04:05:42;0.38;;;0.30;;
37047;SDS011;23227;48.780;9.210;2023-11-19T04:08:44;1.05;;;0.30;;
37047;SDS011;23227;48.780;9.210;2023-11-19T04:11:47;0.40;;;0.35;;
37047;SDS011;23227;48.780;9.210;2023-11-19T04:14:51;0.38;;;0.20;;
37047;SDS011;23227;48.780;9.210;2023-11-19T04:17:56;0.60;;;0.40;;
37047;SDS011;23227;48.780;9.210;2023-11-19T04:20:59;0.40;;;0.32;;
37047;SDS011;23227;48.780;9.210;2023-11-19T04:24:02;0.30;;;0.28;;
37047;SDS011;23227;48.780;9.210;2023-11-19T04:27:05;0.30;;;0.30;;
37047;SDS011;23227;48.780;9.210;2023-11-19T04:30:09;0.47;;;0.30;;
37047;SDS011;23227;48.780;9.210;2023-11-19T04:33:12;0.57;;;0.30;;
37047;SDS011;23227;48.780;9.210;2023-11-19T04:39:21;0.50;;;0.20;;
37047;SDS011;23227;48.780;9.210;2023-11-19T04:42:23;0.30;;;0.30;;
37047;SDS011;23227;48.780;9.210;2023-11-19T04:45:27;0.35;;;0.30;;
37047;SDS011;23227;48.780;9.210;2023-11-19T04:48:30;0.40;;;0.40;;
37047;SDS011;23227;48.780;9.210;2023-11-19T04:51:43;0.60;;;0.30;;
37047;SDS011;23227;48.780;9.210;2023-11-19T04:54:47;0.43;;;0.30;;
37047;SDS011;23227;48.780;9.210;2023-11-19T04:57:49;0.32;;;0.20;;
37047;SDS011;23227;48.780;9.210;2023-11-19T05:00:53;0.20;;;0.20;;
37047;SDS011;23227;48.780;9.210;2023-11-19T05:03:56;0.70;;;0.37;;
37047;SDS011;23227;48.780;9.210;2023-11-19T05:07:01;0.20;;;0.10;;
37047;SDS011;23227;48.780;9.210;2023-11-19T05:10:04;0.30;;;0.30;;
37047;SDS011;23227;48.780;9.210;2023-11-19T05:13:07;0.53;;;0.30;;
37047;SDS011;23227;48.780;9.210;2023-11-19T05:16:11;0.20;;;0.20;;
37047;SDS011;23227;48.780;9.210;2023-11-19T05:19:15;0.30;;;0.27;;
37047;SDS011;23227;48.780;9.210;2023-11-19T05:22:18;0.30;;;0.30;;
37047;SDS011;23227;48.780;9.210;2023-11-19T05:25:22;0.20;;;0.20;;
37047;SDS011;23227;48.780;9.210;2023-11-19T05:28:24;0.55;;;0.20;;
37047;SDS011;23227;48.780;9.210;2023-11-19T05:31:28;0.40;;;0.22;;
37047;SDS011;23227;48.780;9.210;2023-11-19T05:34:36;0.30;;;0.20;;
37047;SDS011;23227;48.780;9.210;2023-11-19T05:37:52;0.10;;;0.10;;
37047;SDS011;23227;48.780;9.210;2023-11-19T05:40:55;0.20;;;0.20;;
37047;SDS011;23227;48.780;9.210;2023-11-19T05:47:02;0.40;;;0.30;;
37047;SDS011;23227;48.780;9.210;2023-11-19T05:50:05;0.10;;;0.10;;
37047;SDS011;23227;48.780;9.210;2023-11-19T05:53:08;0.30;;;0.20;;
37047;SDS011;23227;48.780;9.210;2023-11-19T05:56:11;0.20;;;0.20;;
37047;SDS011;23227;48.780;9.210;2023-11-19T05:59:14;0.30;;;0.20;;
37047;SDS011;23227;48.780;9.210;2023-11-19T06:02:20;0.20;;;0.20;;
37047;SDS011;23227;48.780;9.210;2023-11-19T06:05:22;0.30;;;0.27;;
37047;SDS011;23227;48.780;9.210;2023-11-19T06:08:25;0.10;;;0.10;;
37047;SDS011;23227;48.780;9.210;2023-11-19T06:11:28;0.20;;;0.20;;
37047;SDS011;23227;48.780;9.210;2023-11-19T06:14:31;1.60;;;0.20;;
37047;SDS011;23227;48.780;9.210;2023-11-19T06:17:35;0.20;;;0.20;;
37047;SDS011;23227;48.780;9.210;2023-11-19T06:20:38;0.20;;;0.20;;
37047;SDS011;23227;48.780;9.210;2023-11-19T06:23:43;0.17;;;0.17;;
37047;SDS011;23227;48.780;9.210;2023-11-19T06:26:46;0.20;;;0.20;;
37047;SDS011;23227;48.780;9.210;2023-11-19T06:29:49;0.40;;;0.20;;
37047;SDS011;23227;48.780;9.210;2023-11-19T06:32:53;0.35;;;0.20;;
37047;SDS011;23227;48.780;9.210;2023-11-19T06:35:55;0.30;;;0.30;;
37047;SDS011;23227;48.780;9.210;2023-11-19T06:38:58;0.20;;;0.17;;
37047;SDS011;23227;48.780;9.210;2023-11-19T06:42:00;0.20;;;0.20;;
37047;SDS011;23227;48.780;9.210;2023-11-19T06:45:03;0.10;;;0.10;;
37047;SDS011;23227;48.780;9.210;2023-11-19T06:48:08;0.30;;;0.13;;
37047;SDS011;23227;48.780;9.210;2023-11-19T06:51:11;0.20;;;0.20;;
37047;SDS011;23227;48.780;9.210;2023-11-19T06:54:14;0.50;;;0.20;;
37047;SDS011;23227;48.780;9.210;2023-11-19T06:57:17;0.30;;;0.28;;
37047;SDS011;23227;48.780;9.210;2023-11-19T07:00:21;0.30;;;0.30;;
37047;SDS011;23227;48.780;9.210;2023-11-19T07:03:25;0.50;;;0.20;;
37047;SDS011;23227;48.780;9.210;2023-11-19T07:06:28;0.30;;;0.30;;
37047;SDS011;23227;48.780;9.210;2023-11-19T07:09:33;0.20;;;0.20;;
37047;SDS011;23227;48.780;9.210;2023-11-19T07:12:36;0.20;;;0.20;;
37047;SDS011;23227;48.780;9.210;2023-11-19T07:15:39;0.65;;;0.20;;
37047;SDS011;23227;48.780;9.210;2023-11-19T07:18:43;0.20;;;0.15;;
37047;SDS011;23227;48.780;9.210;2023-11-19T07:21:46;0.67;;;0.10;;
37047;SDS011;23227;48.780;9.210;2023-11-19T07:24:48;0.93;;;0.28;;
37047;SDS011;23227;48.780;9.210;2023-11-19T07:27:51;0.33;;;0.20;;
37047;SDS011;23227;48.780;9.210;2023-11-19T07:30:54;0.95;;;0.10;;
37047;SDS011;23227;48.780;9.210;2023-11-19T07:33:59;6.63;;;0.30;;
37047;SDS011;23227;48.780;9.210;2023-11-19T07:37:02;3.40;;;0.30;;
37047;SDS011;23227;48.780;9.210;2023-11-19T07:40:06;0.27;;;0.20;;
37047;SDS011;23227;48.780;9.210;2023-11-19T07:43:09;0.73;;;0.10;;
37047;SDS011;23227;48.780;9.210;2023-11-19T07:46:12;0.57;;;0.08;;
37047;SDS011;23227;48.780;9.210;2023-11-19T07:49:16;1.75;;;0.25;;
37047;SDS011;23227;48.780;9.210;2023-11-19T07:52:19;2.33;;;0.40;;
37047;SDS011;23227;48.780;9.210;2023-11-19T07:55:22;1.70;;;0.37;;
37047;SDS011;23227;48.780;9.210;2023-11-19T07:58:25;1.02;;;0.20;;
37047;SDS011;23227;48.780;9.210;2023-11-19T08:01:28;0.93;;;0.10;;
37047;SDS011;23227;48.780;9.210;2023-11-19T08:04:32;0.20;;;0.10;;
37047;SDS011;23227;48.780;9.210;2023-11-19T08:07:35;1.20;;;0.17;;
37047;SDS011;23227;48.780;9.210;2023-11-19T08:10:37;0.35;;;0.20;;
37047;SDS011;23227;48.780;9.210;2023-11-19T08:13:41;0.20;;;0.13;;
37047;SDS011;23227;48.780;9.210;2023-11-19T08:16:44;0.20;;;0.20;;
37047;SDS011;23227;48.780;9.210;2023-11-19T08:19:48;1.20;;;0.10;;
37047;SDS011;23227;48.780;9.210;2023-11-19T08:22:51;0.70;;;0.10;;
37047;SDS011;23227;48.780;9.210;2023-11-19T08:25:54;0.13;;;0.10;;
37047;SDS011;23227;48.780;9.210;2023-11-19T08:28:56;0.30;;;0.20;;
37047;SDS011;23227;48.780;9.210;2023-11-19T08:31:59;0.40;;;0.20;;
37047;SDS011;23227;48.780;9.210;2023-11-19T08:35:05;0.67;;;0.20;;
37047;SDS011;23227;48.780;9.210;2023-11-19T08:38:08;0.77;;;0.20;;
37047;SDS011;23227;48.780;9.210;2023-11-19T08:41:11;4.53;;;0.30;;
37047;SDS011;23227;48.780;9.210;2023-11-19T08:44:13;0.73;;;0.20;;
37047;SDS011;23227;48.780;9.210;2023-11-19T08:47:16;2.45;;;0.32;;
37047;SDS011;23227;48.780;9.210;2023-11-19T08:50:21;1.33;;;0.80;;
37047;SDS011;23227;48.780;9.210;2023-11-19T08:53:24;3.03;;;0.17;;
37047;SDS011;23227;48.780;9.210;2023-11-19T08:56:26;2.30;;;0.22;;
37047;SDS011;23227;48.780;9.210;2023-11-19T08:59:33;1.97;;;0.40;;
37047;SDS011;23227;48.780;9.210;2023-11-19T09:02:36;1.20;;;0.38;;
37047;SDS011;23227;48.780;9.210;2023-11-19T09:05:40;0.40;;;0.10;;
37047;SDS011;23227;48.780;9.210;2023-11-19T09:08:43;1.80;;;0.20;;
37047;SDS011;23227;48.780;9.210;2023-11-19T09:11:46;0.77;;;0.10;;
37047;SDS011;23227;48.780;9.210;2023-11-19T09:14:48;3.88;;;0.10;;
37047;SDS011;23227;48.780;9.210;2023-11-19T09:17:51;3.65;;;0.25;;
37047;SDS011;23227;48.780;9.210;2023-11-19T09:20:55;0.70;;;0.10;;
37047;SDS011;23227;48.780;9.210;2023-11-19T09:23:58;0.20;;;0.10;;
37047;SDS011;23227;48.780;9.210;2023-11-19T09:27:00;0.32;;;0.10;;
37047;SDS011;23227;48.780;9.210;2023-11-19T09:30:03;0.40;;;0.10;;
37047;SDS011;23227;48.780;9.210;2023-11-19T09:33:07;0.83;;;0.10;;
37047;SDS011;23227;48.780;9.210;2023-11-19T09:36:12;8.32;;;1.55;;
37047;SDS011;23227;48.780;9.210;2023-11-19T09:39:15;4.70;;;1.40;;
37047;SDS011;23227;48.780;9.210;2023-11-19T09:42:19;4.20;;;0.67;;
37047;SDS011;23227;48.780;9.210;2023-11-19T09:45:21;2.50;;;0.55;;
37047;SDS011;23227;48.780;9.210;2023-11-19T09:48:28;7.20;;;0.80;;
37047;SDS011;23227;48.780;9.210;2023-11-19T09:51:32;3.25;;;0.70;;
37047;SDS011;23227;48.780;9.210;2023-11-19T09:54:34;1.33;;;0.50;;
37047;SDS011;23227;48.780;9.210;2023-11-19T09:57:38;1.70;;;0.43;;
37047;SDS011;23227;48.780;9.210;2023-11-19T10:00:41;16.03;;;2.47;;
37047;SDS011;23227;48.780;9.210;2023-11-19T10:03:44;15.93;;;2.80;;
37047;SDS011;23227;48.780;9.210;2023-11-19T10:06:51;11.60;;;1.60;;
37047;SDS011;23227;48.780;9.210;2023-11-19T10:09:54;10.27;;;1.97;;
37047;SDS011;23227;48.780;9.210;2023-11-19T10:16:03;6.30;;;1.40;;
37047;SDS011;23227;48.780;9.210;2023-11-19T10:19:07;16.87;;;1.90;;
37047;SDS011;23227;48.780;9.210;2023-11-19T10:22:11;10.45;;;1.75;;
37047;SDS011;23227;48.780;9.210;2023-11-19T10:25:22;9.53;;;1.67;;
37047;SDS011;23227;48.780;9.210;2023-11-19T10:28:26;7.93;;;1.83;;
37047;SDS011;23227;48.780;9.210;2023-11-19T10:31:28;5.65;;;1.60;;
37047;SDS011;23227;48.780;9.210;2023-11-19T10:34:31;13.18;;;2.38;;
37047;SDS011;23227;48.780;9.210;2023-11-19T10:37:35;20.85;;;2.40;;
37047;SDS011;23227;48.780;9.210;2023-11-19T10:40:39;9.40;;;2.23;;
37047;SDS011;23227;48.780;9.210;2023-11-19T10:43:42;10.63;;;2.30;;
37047;SDS011;23227;48.780;9.210;2023-11-19T10:46:46;11.47;;;1.90;;
37047;SDS011;23227;48.780;9.210;2023-11-19T10:49:51;10.20;;;2.03;;
37047;SDS011;23227;48.780;9.210;2023-11-19T10:52:56;9.68;;;1.75;;
37047;SDS011;23227;48.780;9.210;2023-11-19T10:56:00;5.27;;;1.37;;
37047;SDS011;23227;48.780;9.210;2023-11-19T10:59:04;17.27;;;3.00;;
37047;SDS011;23227;48.780;9.210;2023-11-19T11:02:24;14.97;;;3.30;;
37047;SDS011;23227;48.780;9.210;2023-11-19T11:05:27;7.23;;;2.10;;
37047;SDS011;23227;48.780;9.210;2023-11-19T11:08:33;10.67;;;2.17;;
37047;SDS011;23227;48.780;9.210;2023-11-19T11:11:39;12.67;;;2.07;;
37047;SDS011;23227;48.780;9.210;2023-11-19T11:14:44;8.07;;;2.60;;
37047;SDS011;23227;48.780;9.210;2023-11-19T11:17:48;5.67;;;2.10;;
37047;SDS011;23227;48.780;9.210;2023-11-19T11:20:52;10.23;;;2.20;;
37047;SDS011;23227;48.780;9.210;2023-11-19T11:24:07;7.73;;;2.93;;
37047;SDS011;23227;48.780;9.210;2023-11-19T11:27:32;7.70;;;1.93;;
37047;SDS011;23227;48.780;9.210;2023-11-19T11:30:49;11.77;;;2.37;;
37047;SDS011;23227;48.780;9.210;2023-11-19T11:34:02;10.60;;;2.10;;
37047;SDS011;23227;48.780;9.210;2023-11-19T11:37:25;6.03;;;1.73;;
37047;SDS011;23227;48.780;9.210;2023-11-19T11:40:33;7.50;;;1.90;;
37047;SDS011;23227;48.780;9.210;2023-11-19T11:43:43;10.40;;;2.00;;
37047;SDS011;23227;48.780;9.210;2023-11-19T11:46:55;9.53;;;1.83;;
37047;SDS011;23227;48.780;9.210;2023-11-19T11:50:03;5.68;;;1.98;;
37047;SDS011;23227;48.780;9.210;2023-11-19T11:53:14;5.50;;;2.30;;
37047;SDS011;23227;48.780;9.210;2023-11-19T11:56:19;5.77;;;1.87;;
37047;SDS011;23227;48.780;9.210;2023-11-19T11:59:23;7.53;;;1.63;;
37047;SDS011;23227;48.780;9.210;2023-11-19T12:02:25;5.50;;;1.53;;
37047;SDS011;23227;48.780;9.210;2023-11-19T12:05:29;5.22;;;1.42;;
37047;SDS011;23227;48.780;9.210;2023-11-19T12:08:32;7.83;;;1.60;;
37047;SDS011;23227;48.780;9.210;2023-11-19T12:12:05;5.50;;;1.50;;
37047;SDS011;23227;48.780;9.210;2023-11-19T12:15:09;3.20;;;1.27;;
37047;SDS011;23227;48.780;9.210;2023-11-19T12:21:27;4.20;;;1.40;;
37047;SDS011;23227;48.780;9.210;2023-11-19T12:24:31;3.93;;;1.57;;
37047;SDS011;23227;48.780;9.210;2023-11-19T12:27:35;6.15;;;1.17;;
37047;SDS011;23227;48.780;9.210;2023-11-19T12:30:38;4.50;;;1.13;;
37047;SDS011;23227;48.780;9.210;2023-11-19T12:36:43;5.90;;;1.20;;
37047;SDS011;23227;48.780;9.210;2023-11-19T12:39:46;5.80;;;1.48;;
37047;SDS011;23227;48.780;9.210;2023-11-19T12:42:51;5.38;;;1.15;;
37047;SDS011;23227;48.780;9.210;2023-11-19T12:45:54;6.00;;;1.20;;
37047;SDS011;23227;48.780;9.210;2023-11-19T12:48:57;4.57;;;0.98;;
37047;SDS011;23227;48.780;9.210;2023-11-19T12:51:59;7.60;;;1.42;;
37047;SDS011;23227;48.780;9.210;2023-11-19T12:55:03;3.95;;;0.85;;
37047;SDS011;23227;48.780;9.210;2023-11-19T12:58:08;1.97;;;0.90;;
37047;SDS011;23227;48.780;9.210;2023-11-19T13:01:14;6.43;;;0.80;;
37047;SDS011;23227;48.780;9.210;2023-11-19T13:04:18;5.70;;;0.70;;
37047;SDS011;23227;48.780;9.210;2023-11-19T13:07:21;2.05;;;0.80;;
37047;SDS011;23227;48.780;9.210;2023-11-19T13:10:24;4.18;;;1.00;;
37047;SDS011;23227;48.780;9.210;2023-11-19T13:13:28;4.10;;;0.80;;
37047;SDS011;23227;48.780;9.210;2023-11-19T13:16:30;2.00;;;0.77;;
37047;SDS011;23227;48.780;9.210;2023-11-19T13:19:34;3.13;;;0.80;;
37047;SDS011;23227;48.780;9.210;2023-11-19T13:22:37;3.03;;;0.85;;
37047;SDS011;23227;48.780;9.210;2023-11-19T13:25:39;3.35;;;0.80;;
37047;SDS011;23227;48.780;9.210;2023-11-19T13:28:43;4.03;;;1.10;;
37047;SDS011;23227;48.780;9.210;2023-11-19T13:31:46;4.43;;;1.10;;
37047;SDS011;23227;48.780;9.210;2023-11-19T13:34:48;4.30;;;0.80;;
37047;SDS011;23227;48.780;9.210;2023-11-19T13:37:51;3.58;;;0.60;;
37047;SDS011;23227;48.780;9.210;2023-11-19T13:40:55;3.00;;;0.93;;
37047;SDS011;23227;48.780;9.210;2023-11-19T13:43:59;2.47;;;1.02;;
37047;SDS011;23227;48.780;9.210;2023-11-19T13:47:01;2.03;;;0.70;;
37047;SDS011;23227;48.780;9.210;2023-11-19T13:50:04;1.52;;;0.57;;
37047;SDS011;23227;48.780;9.210;2023-11-19T13:53:07;2.83;;;0.93;;
37047;SDS011;23227;48.780;9.210;2023-11-19T13:56:10;2.60;;;0.93;;
37047;SDS011;23227;48.780;9.210;2023-11-19T13:59:14;3.05;;;0.82;;
37047;SDS011;23227;48.780;9.210;2023-11-19T14:02:16;2.57;;;0.63;;
37047;SDS011;23227;48.780;9.210;2023-11-19T14:05:19;0.57;;;0.38;;
37047;SDS011;23227;48.780;9.210;2023-11-19T14:08:25;7.43;;;1.07;;
37047;SDS011;23227;48.780;9.210;2023-11-19T14:11:27;3.00;;;0.75;;
37047;SDS011;23227;48.780;9.210;2023-11-19T14:14:31;4.40;;;0.85;;
37047;SDS011;23227;48.780;9.210;2023-11-19T14:17:34;3.93;;;0.90;;
37047;SDS011;23227;48.780;9.210;2023-11-19T14:20:37;3.88;;;0.80;;
37047;SDS011;23227;48.780;9.210;2023-11-19T14:23:40;5.33;;;0.60;;
37047;SDS011;23227;48.780;9.210;2023-11-19T14:26:45;3.17;;;0.40;;
37047;SDS011;23227;48.780;9.210;2023-11-19T14:29:49;7.30;;;1.47;;
37047;SDS011;23227;48.780;9.210;2023-11-19T14:32:52;6.67;;;0.80;;
37047;SDS011;23227;48.780;9.210;2023-11-19T14:35:55;13.20;;;0.80;;
37047;SDS011;23227;48.780;9.210;2023-11-19T14:38:57;7.88;;;1.27;;
37047;SDS011;23227;48.780;9.210;2023-11-19T14:42:00;4.22;;;0.95;;
37047;SDS011;23227;48.780;9.210;2023-11-19T14:45:07;12.60;;;0.97;;
37047;SDS011;23227;48.780;9.210;2023-11-19T14:48:13;5.80;;;0.87;;
37047;SDS011;23227;48.780;9.210;2023-11-19T14:51:16;3.40;;;0.70;;
37047;SDS011;23227;48.780;9.210;2023-11-19T14:54:19;1.98;;;0.55;;
37047;SDS011;23227;48.780;9.210;2023-11-19T14:57:21;1.65;;;0.45;;
37047;SDS011;23227;48.780;9.210;2023-11-19T15:00:25;6.18;;;0.68;;
37047;SDS011;23227;48.780;9.210;2023-11-19T15:03:28;4.30;;;1.13;;
37047;SDS011;23227;48.780;9.210;2023-11-19T15:06:31;1.70;;;0.43;;
37047;SDS011;23227;48.780;9.210;2023-11-19T15:09:35;6.27;;;1.03;;
37047;SDS011;23227;48.780;9.210;2023-11-19T15:12:39;2.20;;;0.60;;
37047;SDS011;23227;48.780;9.210;2023-11-19T15:15:44;3.33;;;0.40;;
37047;SDS011;23227;48.780;9.210;2023-11-19T15:18:47;1.90;;;0.60;;
37047;SDS011;23227;48.780;9.210;2023-11-19T15:21:49;2.92;;;0.68;;
37047;SDS011;23227;48.780;9.210;2023-11-19T15:24:52;0.80;;;0.43;;
37047;SDS011;23227;48.780;9.210;2023-11-19T15:27:55;4.22;;;0.65;;
37047;SDS011;23227;48.780;9.210;2023-11-19T15:30:59;1.33;;;0.50;;
37047;SDS011;23227;48.780;9.210;2023-11-19T15:34:02;1.10;;;0.47;;
37047;SDS011;23227;48.780;9.210;2023-11-19T15:37:04;0.88;;;0.30;;
37047;SDS011;23227;48.780;9.210;2023-11-19T15:40:07;3.63;;;0.47;;
37047;SDS011;23227;48.780;9.210;2023-11-19T15:43:11;1.67;;;0.40;;
37047;SDS011;23227;48.780;9.210;2023-11-19T15:46:15;2.70;;;0.52;;
37047;SDS011;23227;48.780;9.210;2023-11-19T15:49:17;3.30;;;0.60;;
37047;SDS011;23227;48.780;9.210;2023-11-19T15:52:20;5.68;;;0.60;;
37047;SDS011;23227;48.780;9.210;2023-11-19T15:55:23;2.17;;;0.32;;
37047;SDS011;23227;48.780;9.210;2023-11-19T15:58:25;1.20;;;0.47;;
37047;SDS011;23227;48.780;9.210;2023-11-19T16:01:29;3.47;;;0.30;;
37047;SDS011;23227;48.780;9.210;2023-11-19T16:04:32;3.03;;;0.40;;
37047;SDS011;23227;48.780;9.210;2023-11-19T16:07:35;1.85;;;0.50;;
37047;SDS011;23227;48.780;9.210;2023-11-19T16:10:38;0.30;;;0.17;;
37047;SDS011;23227;48.780;9.210;2023-11-19T16:13:43;1.73;;;0.47;;
37047;SDS011;23227;48.780;9.210;2023-11-19T16:16:48;1.17;;;0.40;;
37047;SDS011;23227;48.780;9.210;2023-11-19T16:19:51;1.60;;;0.70;;
37047;SDS011;23227;48.780;9.210;2023-11-19T16:22:54;0.50;;;0.30;;
37047;SDS011;23227;48.780;9.210;2023-11-19T16:25:58;1.47;;;0.50;;
37047;SDS011;23227;48.780;9.210;2023-11-19T16:29:01;1.20;;;0.40;;
37047;SDS011;23227;48.780;9.210;2023-11-19T16:32:05;2.10;;;0.37;;
37047;SDS011;23227;48.780;9.210;2023-11-19T16:35:09;1.00;;;0.40;;
37047;SDS011;23227;48.780;9.210;2023-11-19T16:38:12;1.13;;;0.30;;
37047;SDS011;23227;48.780;9.210;2023-11-19T16:41:17;0.88;;;0.32;;
37047;SDS011;23227;48.780;9.210;2023-11-19T16:44:33;1.40;;;0.60;;
37047;SDS011;23227;48.780;9.210;2023-11-19T16:47:37;1.98;;;0.40;;
37047;SDS011;23227;48.780;9.210;2023-11-19T16:50:40;1.20;;;0.50;;
37047;SDS011;23227;48.780;9.210;2023-11-19T16:53:45;3.55;;;0.85;;
37047;SDS011;23227;48.780;9.210;2023-11-19T16:56:48;1.90;;;0.70;;
37047;SDS011;23227;48.780;9.210;2023-11-19T16:59:51;0.55;;;0.28;;
37047;SDS011;23227;48.780;9.210;2023-11-19T17:02:58;1.57;;;0.20;;
37047;SDS011;23227;48.780;9.210;2023-11-19T17:06:04;2.80;;;0.30;;
37047;SDS011;23227;48.780;9.210;2023-11-19T17:09:06;1.85;;;0.40;;
37047;SDS011;23227;48.780;9.210;2023-11-19T17:12:13;3.40;;;0.40;;
37047;SDS011;23227;48.780;9.210;2023-11-19T17:15:16;1.05;;;0.43;;
37047;SDS011;23227;48.780;9.210;2023-11-19T17:18:20;0.85;;;0.20;;
37047;SDS011;23227;48.780;9.210;2023-11-19T17:21:22;1.57;;;0.40;;
37047;SDS011;23227;48.780;9.210;2023-11-19T17:24:26;0.37;;;0.20;;
37047;SDS011;23227;48.780;9.210;2023-11-19T17:27:29;0.68;;;0.45;;
37047;SDS011;23227;48.780;9.210;2023-11-19T17:30:32;1.45;;;0.30;;
37047;SDS011;23227;48.780;9.210;2023-11-19T17:33:36;0.40;;;0.30;;
37047;SDS011;23227;48.780;9.210;2023-11-19T17:36:39;0.40;;;0.33;;
37047;SDS011;23227;48.780;9.210;2023-11-19T17:42:44;0.50;;;0.20;;
37047;SDS011;23227;48.780;9.210;2023-11-19T17:45:47;0.52;;;0.30;;
37047;SDS011;23227;48.780;9.210;2023-11-19T17:48:51;1.37;;;0.37;;
37047;SDS011;23227;48.780;9.210;2023-11-19T17:51:54;0.60;;;0.40;;
37047;SDS011;23227;48.780;9.210;2023-11-19T17:54:56;1.48;;;0.30;;
37047;SDS011;23227;48.780;9.210;2023-11-19T17:57:59;2.60;;;0.30;;
37047;SDS011;23227;48.780;9.210;2023-11-19T18:01:02;0.85;;;0.32;;
37047;SDS011;23227;48.780;9.210;2023-11-19T18:04:06;0.30;;;0.30;;
37047;SDS011;23227;48.780;9.210;2023-11-19T18:07:09;1.27;;;0.43;;
37047;SDS011;23227;48.780;9.210;2023-11-19T18:10:11;0.40;;;0.30;;
37047;SDS011;23227;48.780;9.210;2023-11-19T18:13:15;0.40;;;0.20;;
37047;SDS011;23227;48.780;9.210;2023-11-19T18:16:18;2.55;;;0.43;;
37047;SDS011;23227;48.780;9.210;2023-11-19T18:19:22;3.10;;;0.30;;
37047;SDS011;23227;48.780;9.210;2023-11-19T18:22:24;2.43;;;0.30;;
37047;SDS011;23227;48.780;9.210;2023-11-19T18:25:27;0.35;;;0.20;;
37047;SDS011;23227;48.780;9.210;2023-11-19T18:28:30;1.65;;;0.45;;
37047;SDS011;23227;48.780;9.210;2023-11-19T18:31:32;1.65;;;0.75;;
37047;SDS011;23227;48.780;9.210;2023-11-19T18:34:36;0.55;;;0.32;;
37047;SDS011;23227;48.780;9.210;2023-11-19T18:37:41;1.27;;;0.37;;
37047;SDS011;23227;48.780;9.210;2023-11-19T18:40:43;2.90;;;0.40;;
37047;SDS011;23227;48.780;9.210;2023-11-19T18:43:46;2.57;;;0.20;;
37047;SDS011;23227;48.780;9.210;2023-11-19T18:46:49;1.15;;;0.20;;
37047;SDS011;23227;48.780;9.210;2023-11-19T18:49:53;1.23;;;0.40;;
37047;SDS011;23227;48.780;9.210;2023-11-19T18:52:56;2.43;;;0.30;;
37047;SDS011;23227;48.780;9.210;2023-11-19T18:55:58;1.33;;;0.40;;
37047;SDS011;23227;48.780;9.210;2023-11-19T18:59:01;0.35;;;0.30;;